TNCB/BON METAR and TAF weather

Enter ICAO airport designator
Station Type Date Time Source
TNCB METAR 2020/02/24 07:55 UTC NOAA

TNCB 240755Z AUTO 09004KT 9999 NSC 24/22 Q1012


Station Type Date Time Source
TNCB Decoded METAR 2020/02/24 07:55 UTC NOAA

Flamingo Airport, Bonaire, Netherlands Antilles (TNCB) 12-09N 068-17W 7M
Feb 24, 2020 - 02:55 AM EST / 2020.02.24 0755 UTC
Wind: from the E (090 degrees) at 5 MPH (4 KT):0
Visibility: greater than 7 mile(s):0
Temperature: 75 F (24 C)
Dew Point: 71 F (22 C)
Relative Humidity: 88%
Pressure (altimeter): 29.88 in. Hg (1012 hPa)
ob: TNCB 240755Z AUTO 09004KT 9999 NSC 24/22 Q1012
cycle: 8

Station Type Date Time Source
TNCB TAF 2020/02/24 06:27 UTC NOAA

TAF TAF TNCB 240513Z 2406/2512 08012KT 9999 SCT020

Example: see airport list